createdAt,value
2024-05-09T00:00:41.762Z,8.72
2024-05-09T00:01:40.875Z,8.71
2024-05-09T00:02:40.800Z,8.80
2024-05-09T00:03:40.872Z,8.78
2024-05-09T00:04:40.836Z,8.71
2024-05-09T00:05:41.076Z,8.71
2024-05-09T00:06:40.765Z,8.75
2024-05-09T00:07:40.760Z,8.78
2024-05-09T00:08:40.789Z,8.86
2024-05-09T00:09:40.783Z,8.77
2024-05-09T00:10:41.463Z,8.89
2024-05-09T00:11:40.946Z,8.77
2024-05-09T00:12:40.763Z,8.71
2024-05-09T00:13:40.711Z,8.65
2024-05-09T00:14:40.743Z,8.65
2024-05-09T00:15:40.736Z,8.49
2024-05-09T00:16:40.713Z,8.47
2024-05-09T00:17:41.025Z,8.52
2024-05-09T00:18:40.850Z,8.60
2024-05-09T00:19:40.658Z,8.57
2024-05-09T00:20:41.415Z,8.62
2024-05-09T00:21:41.146Z,8.60
2024-05-09T00:22:40.671Z,8.70
2024-05-09T00:23:40.736Z,8.60
2024-05-09T00:24:40.610Z,8.57
2024-05-09T00:25:40.607Z,8.65
2024-05-09T00:26:40.779Z,8.60
2024-05-09T00:27:40.663Z,8.57
2024-05-09T00:28:40.575Z,8.63
2024-05-09T00:29:40.579Z,8.60
2024-05-09T00:30:40.732Z,8.67
2024-05-09T00:31:40.587Z,8.65
2024-05-09T00:32:40.642Z,8.63
2024-05-09T00:33:40.805Z,8.59
2024-05-09T00:34:40.526Z,8.60
2024-05-09T00:35:40.524Z,8.60
2024-05-09T00:36:40.518Z,8.56
2024-05-09T00:37:40.561Z,8.59
2024-05-09T00:38:40.598Z,8.56
2024-05-09T00:39:40.522Z,8.56
2024-05-09T00:40:42.631Z,8.56
2024-05-09T00:41:40.647Z,8.53
2024-05-09T00:42:40.614Z,8.53
2024-05-09T00:43:40.479Z,8.42
2024-05-09T00:44:40.436Z,8.52
2024-05-09T00:45:40.468Z,8.46
2024-05-09T00:46:40.426Z,8.44
2024-05-09T00:47:40.795Z,8.50
2024-05-09T00:48:40.656Z,8.52
2024-05-09T00:49:40.676Z,8.46
2024-05-09T00:50:41.093Z,8.49
2024-05-09T00:51:40.391Z,8.47
2024-05-09T00:52:40.371Z,8.53
2024-05-09T00:53:40.480Z,8.52
2024-05-09T00:54:40.354Z,8.53
2024-05-09T00:55:40.413Z,8.39
2024-05-09T00:56:40.409Z,8.42
2024-05-09T00:57:40.339Z,8.53
2024-05-09T00:58:40.626Z,8.47
2024-05-09T00:59:40.377Z,8.57
2024-05-09T01:00:41.459Z,8.41
2024-05-09T01:01:40.566Z,8.56
2024-05-09T01:02:40.452Z,8.46
2024-05-09T01:03:40.615Z,8.52
2024-05-09T01:04:40.375Z,8.41
2024-05-09T01:05:40.679Z,8.49
2024-05-09T01:06:40.360Z,8.47
2024-05-09T01:07:40.363Z,8.47
2024-05-09T01:08:40.311Z,8.50
2024-05-09T01:09:40.242Z,8.37
2024-05-09T01:10:42.774Z,8.46
2024-05-09T01:11:40.394Z,8.44
2024-05-09T01:12:40.347Z,8.46
2024-05-09T01:13:40.221Z,8.41
2024-05-09T01:14:40.200Z,8.39
2024-05-09T01:15:40.269Z,8.32
2024-05-09T01:16:40.178Z,8.42
2024-05-09T01:17:40.637Z,8.39
2024-05-09T01:18:40.377Z,8.31
2024-05-09T01:19:40.289Z,8.37
2024-05-09T01:20:43.221Z,8.31
2024-05-09T01:21:40.176Z,8.42
2024-05-09T01:22:40.193Z,8.38
2024-05-09T01:23:40.205Z,8.41
2024-05-09T01:24:40.346Z,8.38
2024-05-09T01:25:40.111Z,8.32
2024-05-09T01:26:40.127Z,8.34
2024-05-09T01:27:40.091Z,8.28
2024-05-09T01:28:41.716Z,8.35
2024-05-09T01:29:40.109Z,8.29
2024-05-09T01:30:40.087Z,8.31
2024-05-09T01:31:40.098Z,8.31
2024-05-09T01:32:40.256Z,8.28
2024-05-09T01:33:40.199Z,8.31
2024-05-09T01:34:40.038Z,8.34
2024-05-09T01:35:40.071Z,8.24
2024-05-09T01:36:40.128Z,8.31
2024-05-09T01:37:40.001Z,8.26
2024-05-09T01:38:40.023Z,8.35
2024-05-09T01:39:39.992Z,8.19
2024-05-09T01:40:40.561Z,8.23
2024-05-09T01:41:39.965Z,8.12
2024-05-09T01:42:39.966Z,8.06
2024-05-09T01:43:39.977Z,8.04
2024-05-09T01:44:39.941Z,8.04
2024-05-09T01:45:40.216Z,8.13
2024-05-09T01:46:39.942Z,8.16
2024-05-09T01:47:40.038Z,8.05
2024-05-09T01:48:39.978Z,8.19
2024-05-09T01:49:39.988Z,8.17
2024-05-09T01:50:42.339Z,8.17
2024-05-09T01:51:39.915Z,8.04
2024-05-09T01:52:39.907Z,7.92
2024-05-09T01:53:39.939Z,7.87
2024-05-09T01:54:39.856Z,7.84
2024-05-09T01:55:39.847Z,7.77
2024-05-09T01:56:39.860Z,7.86
2024-05-09T01:57:39.877Z,7.87
2024-05-09T01:58:39.834Z,7.62
2024-05-09T01:59:39.955Z,7.73
2024-05-09T02:00:42.233Z,7.62
2024-05-09T02:01:55.887Z,7.76
2024-05-09T02:02:40.880Z,7.73
2024-05-09T02:03:39.903Z,7.77
2024-05-09T02:04:39.913Z,7.84
2024-05-09T02:05:39.845Z,7.77
2024-05-09T02:06:39.894Z,7.78
2024-05-09T02:07:39.735Z,7.74
2024-05-09T02:08:39.940Z,7.77
2024-05-09T02:09:39.725Z,7.78
2024-05-09T02:10:39.731Z,7.64
2024-05-09T02:11:39.901Z,7.76
2024-05-09T02:12:39.700Z,7.71
2024-05-09T02:13:39.795Z,7.74
2024-05-09T02:14:39.739Z,7.76
2024-05-09T02:15:39.694Z,7.66
2024-05-09T02:16:39.658Z,7.74
2024-05-09T02:17:39.879Z,7.80
2024-05-09T02:18:39.959Z,7.83
2024-05-09T02:19:39.698Z,7.87
2024-05-09T02:20:39.892Z,7.87
2024-05-09T02:21:39.615Z,7.68
2024-05-09T02:22:39.614Z,7.80
2024-05-09T02:23:39.663Z,7.69
2024-05-09T02:24:39.660Z,7.80
2024-05-09T02:25:39.577Z,7.81
2024-05-09T02:26:39.704Z,7.84
2024-05-09T02:27:39.713Z,7.86
2024-05-09T02:28:39.551Z,7.94
2024-05-09T02:29:39.630Z,7.98
2024-05-09T02:30:41.657Z,7.91
2024-05-09T02:31:39.560Z,7.87
2024-05-09T02:32:39.728Z,7.88
2024-05-09T02:33:39.700Z,7.95
2024-05-09T02:34:39.535Z,8.04
2024-05-09T02:35:39.899Z,7.88
2024-05-09T02:36:39.509Z,7.95
2024-05-09T02:37:39.470Z,7.87
2024-05-09T02:38:39.498Z,7.92
2024-05-09T02:39:39.526Z,7.87
2024-05-09T02:40:40.333Z,7.80
2024-05-09T02:41:39.540Z,7.69
2024-05-09T02:42:39.506Z,7.83
2024-05-09T02:43:39.422Z,7.86
2024-05-09T02:44:39.420Z,7.76
2024-05-09T02:45:39.706Z,7.77
2024-05-09T02:46:39.445Z,7.83
2024-05-09T02:47:39.732Z,7.91
2024-05-09T02:48:39.523Z,7.81
2024-05-09T02:49:39.439Z,7.62
2024-05-09T02:50:40.243Z,7.83
2024-05-09T02:51:39.378Z,7.58
2024-05-09T02:52:39.368Z,7.68
2024-05-09T02:53:39.423Z,7.62
2024-05-09T02:54:39.338Z,7.69
2024-05-09T02:55:39.336Z,7.78
2024-05-09T02:56:39.394Z,7.74
2024-05-09T02:57:39.372Z,7.80
2024-05-09T02:58:39.309Z,7.68
2024-05-09T02:59:39.306Z,7.73
2024-05-09T03:00:41.719Z,7.74
2024-05-09T03:01:39.347Z,7.69
2024-05-09T03:02:39.522Z,7.73
2024-05-09T03:03:39.544Z,7.68
2024-05-09T03:04:39.373Z,7.73
2024-05-09T03:05:39.629Z,7.87
2024-05-09T03:06:39.238Z,7.78
2024-05-09T03:07:39.331Z,7.77
2024-05-09T03:08:39.311Z,7.88
2024-05-09T03:09:39.368Z,7.74
2024-05-09T03:10:39.785Z,7.80
2024-05-09T03:11:39.336Z,7.74
2024-05-09T03:12:39.474Z,7.80
2024-05-09T03:13:39.193Z,7.78
2024-05-09T03:14:39.211Z,7.80
2024-05-09T03:15:39.697Z,7.74
2024-05-09T03:16:39.156Z,7.78
2024-05-09T03:17:39.306Z,7.84
2024-05-09T03:18:39.309Z,7.92
2024-05-09T03:19:39.188Z,7.83
2024-05-09T03:20:39.497Z,7.88
2024-05-09T03:21:39.252Z,7.84
2024-05-09T03:22:39.113Z,7.87
2024-05-09T03:23:39.257Z,7.84
2024-05-09T03:24:39.084Z,7.83
2024-05-09T03:25:39.119Z,7.76
2024-05-09T03:26:39.135Z,7.66
2024-05-09T03:27:39.130Z,7.54
2024-05-09T03:28:39.053Z,7.52
2024-05-09T03:29:39.095Z,7.71
2024-05-09T03:30:42.324Z,7.71
2024-05-09T03:31:39.044Z,7.54
2024-05-09T03:32:39.145Z,7.58
2024-05-09T03:33:39.277Z,7.57
2024-05-09T03:34:39.059Z,7.47
2024-05-09T03:35:39.075Z,7.44
2024-05-09T03:36:39.028Z,7.54
2024-05-09T03:37:39.022Z,7.44
2024-05-09T03:38:39.065Z,7.58
2024-05-09T03:39:38.958Z,7.61
2024-05-09T03:40:39.006Z,7.61
2024-05-09T03:41:38.959Z,7.50
2024-05-09T03:42:38.996Z,7.68
2024-05-09T03:43:38.926Z,7.61
2024-05-09T03:44:38.964Z,7.50
2024-05-09T03:45:38.907Z,7.43
2024-05-09T03:46:38.928Z,7.39
2024-05-09T03:47:38.967Z,7.37
2024-05-09T03:48:39.044Z,7.55
2024-05-09T03:49:38.929Z,7.55
2024-05-09T03:50:39.071Z,7.39
2024-05-09T03:51:38.852Z,7.57
2024-05-09T03:52:39.004Z,7.54
2024-05-09T03:53:38.954Z,7.49
2024-05-09T03:54:38.839Z,7.54
2024-05-09T03:55:38.905Z,7.61
2024-05-09T03:56:38.894Z,7.58
2024-05-09T03:57:38.793Z,7.50
2024-05-09T03:58:38.802Z,7.47
2024-05-09T03:59:38.850Z,7.55
2024-05-09T04:00:40.129Z,7.52
2024-05-09T04:01:38.817Z,7.39
2024-05-09T04:02:38.887Z,7.39
2024-05-09T04:03:38.857Z,7.42
2024-05-09T04:04:38.774Z,7.28
2024-05-09T04:05:38.770Z,7.28
2024-05-09T04:06:38.738Z,7.37
2024-05-09T04:07:38.747Z,7.49
2024-05-09T04:08:38.878Z,7.37
2024-05-09T04:09:38.733Z,7.42
2024-05-09T04:10:38.764Z,7.47
2024-05-09T04:11:38.857Z,7.52
2024-05-09T04:12:38.727Z,7.47
2024-05-09T04:13:38.721Z,7.49
2024-05-09T04:14:38.736Z,7.34
2024-05-09T04:15:38.671Z,7.46
2024-05-09T04:16:38.638Z,7.43
2024-05-09T04:17:38.791Z,7.55
2024-05-09T04:18:38.723Z,7.47
2024-05-09T04:19:38.743Z,7.58
2024-05-09T04:20:40.668Z,7.54
2024-05-09T04:21:38.608Z,7.52
2024-05-09T04:22:38.594Z,7.52
2024-05-09T04:23:38.594Z,7.50
2024-05-09T04:24:38.583Z,7.52
2024-05-09T04:25:38.608Z,7.52
2024-05-09T04:26:38.633Z,7.55
2024-05-09T04:27:38.554Z,7.54
2024-05-09T04:28:38.540Z,7.33
2024-05-09T04:29:38.750Z,7.25
2024-05-09T04:30:40.961Z,7.33
2024-05-09T04:31:38.555Z,7.21
2024-05-09T04:32:38.795Z,7.25
2024-05-09T04:33:38.623Z,7.42
2024-05-09T04:34:38.512Z,7.37
2024-05-09T04:35:38.900Z,7.31
2024-05-09T04:36:40.302Z,7.39
2024-05-09T04:37:38.505Z,7.40
2024-05-09T04:38:38.562Z,7.49
2024-05-09T04:39:38.445Z,7.47
2024-05-09T04:40:38.681Z,7.52
2024-05-09T04:41:38.512Z,7.58
2024-05-09T04:42:38.455Z,7.49
2024-05-09T04:43:38.465Z,7.44
2024-05-09T04:44:38.439Z,7.58
2024-05-09T04:45:38.471Z,7.50
2024-05-09T04:46:39.171Z,7.43
2024-05-09T04:47:38.712Z,7.44
2024-05-09T04:48:38.473Z,7.47
2024-05-09T04:49:38.415Z,7.43
2024-05-09T04:50:39.671Z,7.43
2024-05-09T04:51:38.379Z,7.16
2024-05-09T04:52:38.329Z,7.10
2024-05-09T04:53:38.483Z,7.18
2024-05-09T04:54:38.318Z,7.15
2024-05-09T04:55:38.567Z,7.19
2024-05-09T04:56:38.328Z,7.25
2024-05-09T04:57:38.292Z,7.33
2024-05-09T04:58:38.269Z,7.37
2024-05-09T04:59:38.361Z,7.43
2024-05-09T05:00:39.293Z,7.31
2024-05-09T05:01:38.423Z,7.40
2024-05-09T05:02:38.314Z,7.42
2024-05-09T05:03:39.480Z,7.50
2024-05-09T05:04:38.281Z,7.50
2024-05-09T05:05:38.829Z,7.71
2024-05-09T05:06:38.234Z,7.62
2024-05-09T05:07:38.212Z,7.62
2024-05-09T05:08:38.318Z,7.60
2024-05-09T05:09:38.193Z,7.66
2024-05-09T05:10:38.265Z,7.76
2024-05-09T05:11:38.436Z,7.80
2024-05-09T05:12:38.154Z,7.66
2024-05-09T05:13:41.359Z,7.69
2024-05-09T05:14:38.220Z,7.76
2024-05-09T05:15:38.142Z,7.76
2024-05-09T05:16:38.144Z,7.71
2024-05-09T05:17:38.628Z,7.71
2024-05-09T05:18:38.253Z,7.71
2024-05-09T05:19:38.374Z,7.87
2024-05-09T05:20:38.188Z,8.09
2024-05-09T05:21:38.084Z,7.92
2024-05-09T05:22:38.083Z,7.91
2024-05-09T05:23:38.580Z,8.09
2024-05-09T05:24:38.072Z,8.10
2024-05-09T05:25:38.071Z,8.16
2024-05-09T05:26:38.094Z,8.02
2024-05-09T05:27:38.046Z,8.01
2024-05-09T05:28:38.060Z,8.05
2024-05-09T05:29:38.189Z,7.99
2024-05-09T05:30:38.076Z,8.14
2024-05-09T05:31:38.024Z,8.21
2024-05-09T05:32:38.209Z,8.26
2024-05-09T05:33:38.259Z,8.34
2024-05-09T05:34:37.980Z,8.41
2024-05-09T05:35:38.043Z,8.17
2024-05-09T05:36:37.997Z,8.04
2024-05-09T05:37:37.959Z,7.95
2024-05-09T05:38:38.030Z,7.99
2024-05-09T05:39:37.959Z,7.94
2024-05-09T05:40:39.074Z,7.98
2024-05-09T05:41:37.963Z,8.10
2024-05-09T05:42:37.923Z,8.17
2024-05-09T05:43:37.936Z,8.10
2024-05-09T05:44:37.987Z,7.83
2024-05-09T05:45:38.214Z,7.87
2024-05-09T05:46:37.895Z,7.91
2024-05-09T05:47:38.110Z,8.23
2024-05-09T05:48:38.006Z,8.14
2024-05-09T05:49:38.115Z,8.17
2024-05-09T05:50:38.742Z,7.99
2024-05-09T05:51:37.828Z,7.94
2024-05-09T05:52:37.854Z,7.92
2024-05-09T05:53:37.900Z,7.94
2024-05-09T05:54:37.813Z,8.17
2024-05-09T05:55:37.904Z,8.29
2024-05-09T05:56:37.892Z,8.16
2024-05-09T05:57:37.793Z,8.01
2024-05-09T05:58:37.789Z,8.12
2024-05-09T05:59:37.947Z,8.09
2024-05-09T06:00:40.106Z,7.96
2024-05-09T06:01:37.923Z,8.01
2024-05-09T06:02:37.878Z,8.20
2024-05-09T06:03:37.879Z,8.05
2024-05-09T06:04:37.805Z,7.95
2024-05-09T06:05:37.777Z,8.06
2024-05-09T06:06:37.752Z,8.29
2024-05-09T06:07:37.722Z,8.47
2024-05-09T06:08:37.689Z,8.55
2024-05-09T06:09:37.735Z,8.53
2024-05-09T06:10:40.173Z,8.55
2024-05-09T06:11:37.776Z,8.56
2024-05-09T06:12:37.677Z,8.78
2024-05-09T06:13:37.664Z,8.75
2024-05-09T06:14:38.082Z,8.70
2024-05-09T06:15:37.967Z,8.53
2024-05-09T06:16:37.648Z,8.71
2024-05-09T06:17:37.763Z,8.89
2024-05-09T06:18:37.835Z,8.98
2024-05-09T06:19:37.700Z,9.04
2024-05-09T06:20:38.476Z,9.24
2024-05-09T06:21:38.073Z,9.03
2024-05-09T06:22:38.424Z,8.89
2024-05-09T06:23:38.338Z,8.93
2024-05-09T06:24:37.599Z,9.11
2024-05-09T06:25:38.060Z,9.29
2024-05-09T06:26:37.598Z,9.59
2024-05-09T06:27:37.822Z,9.78
2024-05-09T06:28:37.529Z,10.02
2024-05-09T06:29:37.674Z,10.17
2024-05-09T06:30:40.094Z,10.46
2024-05-09T06:31:37.535Z,10.45
2024-05-09T06:32:37.676Z,10.49
2024-05-09T06:33:37.679Z,10.31
2024-05-09T06:34:37.511Z,10.46
2024-05-09T06:35:37.603Z,10.55
2024-05-09T06:36:37.547Z,10.90
2024-05-09T06:37:37.479Z,11.00
2024-05-09T06:38:37.620Z,10.62
2024-05-09T06:39:37.616Z,10.35
2024-05-09T06:40:39.672Z,10.03
2024-05-09T06:41:37.525Z,10.08
2024-05-09T06:42:37.475Z,10.39
2024-05-09T06:43:37.864Z,10.48
2024-05-09T06:44:37.894Z,10.72
2024-05-09T06:45:37.647Z,10.93
2024-05-09T06:46:37.378Z,10.80
2024-05-09T06:47:37.531Z,10.78
2024-05-09T06:48:37.642Z,10.72
2024-05-09T06:49:37.412Z,10.70
2024-05-09T06:50:39.074Z,10.80
2024-05-09T06:51:38.371Z,10.62
2024-05-09T06:52:37.381Z,10.83
2024-05-09T06:53:37.931Z,11.12
2024-05-09T06:54:37.320Z,11.11
2024-05-09T06:55:37.640Z,11.15
2024-05-09T06:56:37.387Z,11.28
2024-05-09T06:57:39.171Z,11.82
2024-05-09T06:58:37.342Z,12.07
2024-05-09T06:59:37.348Z,12.05
2024-05-09T07:00:40.177Z,11.54
2024-05-09T07:01:37.284Z,11.36
2024-05-09T07:02:37.616Z,11.56
2024-05-09T07:03:37.373Z,11.79
2024-05-09T07:04:37.467Z,12.07
2024-05-09T07:05:38.793Z,11.71
2024-05-09T07:06:37.922Z,11.95
2024-05-09T07:07:37.598Z,12.03
2024-05-09T07:08:37.240Z,12.40
2024-05-09T07:09:37.207Z,12.73
2024-05-09T07:10:37.971Z,12.83
2024-05-09T07:11:37.755Z,13.27
2024-05-09T07:12:38.001Z,13.21
2024-05-09T07:13:37.539Z,13.38
2024-05-09T07:14:38.376Z,13.94
2024-05-09T07:15:37.183Z,14.59
2024-05-09T07:16:37.295Z,14.71
2024-05-09T07:17:37.688Z,14.78
2024-05-09T07:18:37.646Z,15.17
2024-05-09T07:19:46.825Z,14.79
2024-05-09T07:20:37.545Z,14.28
2024-05-09T07:21:37.090Z,14.15
2024-05-09T07:22:37.833Z,14.38
2024-05-09T07:23:37.234Z,14.82
2024-05-09T07:24:37.102Z,14.34
2024-05-09T07:25:37.518Z,14.79
2024-05-09T07:26:37.282Z,14.85
2024-05-09T07:27:37.166Z,14.74
2024-05-09T07:28:37.418Z,14.78
2024-05-09T07:29:38.909Z,14.90
2024-05-09T07:30:37.069Z,14.63
2024-05-09T07:31:37.725Z,14.26
2024-05-09T07:32:37.649Z,13.98
2024-05-09T07:33:37.130Z,14.53
2024-05-09T07:34:37.638Z,14.56
2024-05-09T07:35:37.160Z,14.52
2024-05-09T07:36:36.995Z,14.86
2024-05-09T07:37:37.003Z,14.52
2024-05-09T07:38:37.155Z,14.86
2024-05-09T07:39:37.457Z,15.27
2024-05-09T07:40:37.495Z,15.11
2024-05-09T07:41:37.121Z,14.52
2024-05-09T07:42:37.478Z,14.03
2024-05-09T07:43:36.986Z,14.22
2024-05-09T07:44:37.363Z,14.15
2024-05-09T07:45:48.464Z,14.05
2024-05-09T07:47:47.280Z,14.28
2024-05-09T07:48:58.024Z,13.97
2024-05-09T07:50:34.657Z,14.23
2024-05-09T07:53:14.247Z,14.86
2024-05-09T07:53:33.626Z,14.97
2024-05-09T07:53:43.370Z,14.64
2024-05-09T07:54:38.138Z,14.41
2024-05-09T07:55:37.351Z,14.18
2024-05-09T07:56:37.474Z,14.12
2024-05-09T07:57:37.245Z,14.63
2024-05-09T07:58:36.823Z,14.70
2024-05-09T07:59:38.055Z,14.52
2024-05-09T08:00:37.520Z,14.23
2024-05-09T08:01:36.964Z,14.41
2024-05-09T08:02:36.783Z,14.78
2024-05-09T08:03:36.881Z,15.04
2024-05-09T08:04:36.846Z,15.59
2024-05-09T08:05:37.188Z,15.68
2024-05-09T08:06:36.811Z,15.73
2024-05-09T08:07:36.770Z,15.73
2024-05-09T08:08:37.256Z,15.73
2024-05-09T08:09:38.389Z,15.77
2024-05-09T08:10:36.857Z,15.96
2024-05-09T08:11:36.715Z,16.16
2024-05-09T08:12:36.698Z,16.06
2024-05-09T08:13:36.940Z,15.90
2024-05-09T08:14:36.663Z,15.72
2024-05-09T08:15:36.745Z,15.60
2024-05-09T08:16:36.750Z,15.78
2024-05-09T08:17:36.729Z,15.66
2024-05-09T08:18:36.806Z,15.72
2024-05-09T08:19:36.729Z,15.73
2024-05-09T08:20:36.653Z,15.73
2024-05-09T08:21:36.690Z,15.72
2024-05-09T08:22:36.600Z,15.95
2024-05-09T08:23:36.605Z,16.33
2024-05-09T08:24:36.646Z,16.14
2024-05-09T08:25:37.258Z,16.17
2024-05-09T08:26:36.597Z,16.25
2024-05-09T08:27:36.579Z,16.42
2024-05-09T08:28:36.547Z,16.25
2024-05-09T08:29:36.565Z,16.21
2024-05-09T08:30:38.257Z,16.29
2024-05-09T08:31:36.637Z,16.52
2024-05-09T08:32:36.568Z,16.46
2024-05-09T08:33:36.927Z,16.80
2024-05-09T08:34:36.578Z,16.88
2024-05-09T08:35:36.503Z,17.09
2024-05-09T08:36:36.498Z,17.04
2024-05-09T08:37:38.936Z,17.02
2024-05-09T08:38:36.472Z,16.79
2024-05-09T08:39:36.630Z,17.12
2024-05-09T08:40:37.866Z,17.02
2024-05-09T08:41:36.460Z,17.52
2024-05-09T08:42:36.466Z,17.76
2024-05-09T08:43:39.031Z,17.84
2024-05-09T08:44:36.412Z,17.81
2024-05-09T08:45:36.622Z,17.63
2024-05-09T08:46:36.427Z,17.78
2024-05-09T08:47:36.505Z,17.88
2024-05-09T08:48:36.555Z,17.83
2024-05-09T08:49:37.707Z,17.90
2024-05-09T08:50:39.163Z,18.06
2024-05-09T08:51:36.381Z,17.53
2024-05-09T08:52:36.351Z,17.30
2024-05-09T08:53:36.365Z,17.39
2024-05-09T08:54:36.358Z,17.71
2024-05-09T08:55:39.437Z,17.88
2024-05-09T08:56:38.290Z,17.93
2024-05-09T08:57:36.353Z,17.93
2024-05-09T08:58:36.424Z,18.33
2024-05-09T08:59:36.298Z,18.39
2024-05-09T09:00:37.629Z,18.30
2024-05-09T09:01:38.038Z,18.17
2024-05-09T09:02:36.404Z,18.34
2024-05-09T09:03:36.711Z,18.93
2024-05-09T09:04:36.328Z,19.12
2024-05-09T09:05:37.045Z,19.05
2024-05-09T09:06:36.239Z,19.15
2024-05-09T09:07:36.325Z,18.96
2024-05-09T09:08:36.207Z,18.58
2024-05-09T09:09:36.255Z,18.71
2024-05-09T09:10:36.376Z,19.07
2024-05-09T09:11:36.284Z,19.35
2024-05-09T09:12:36.219Z,19.39
2024-05-09T09:13:36.170Z,19.26
2024-05-09T09:14:36.150Z,18.64
2024-05-09T09:15:36.391Z,18.46
2024-05-09T09:16:36.135Z,18.21
2024-05-09T09:17:36.279Z,18.63
2024-05-09T09:18:36.345Z,19.01
2024-05-09T09:19:36.268Z,19.20
2024-05-09T09:20:37.131Z,19.60
2024-05-09T09:21:36.227Z,19.87
2024-05-09T09:22:36.096Z,20.23
2024-05-09T09:23:36.138Z,20.04
2024-05-09T09:24:36.082Z,19.32
2024-05-09T09:25:36.188Z,19.04
2024-05-09T09:26:36.101Z,19.05
2024-05-09T09:27:36.191Z,19.12
2024-05-09T09:28:36.035Z,18.98
2024-05-09T09:29:36.050Z,18.71
2024-05-09T09:30:37.961Z,18.81
2024-05-09T09:31:36.085Z,18.43
2024-05-09T09:32:36.148Z,18.58
2024-05-09T09:33:36.579Z,18.43
2024-05-09T09:34:36.058Z,19.19
2024-05-09T09:35:35.998Z,19.50
2024-05-09T09:36:35.995Z,19.38
2024-05-09T09:37:35.992Z,18.74
2024-05-09T09:38:35.977Z,18.46
2024-05-09T09:39:35.980Z,18.85
2024-05-09T09:40:38.924Z,18.52
2024-05-09T09:41:36.940Z,18.24
2024-05-09T09:42:36.346Z,18.38
2024-05-09T09:43:35.942Z,18.60
2024-05-09T09:44:39.527Z,18.66
2024-05-09T09:45:37.003Z,18.63
2024-05-09T09:46:35.948Z,19.16
2024-05-09T09:47:35.933Z,18.98
2024-05-09T09:48:36.537Z,19.01
2024-05-09T09:49:35.929Z,18.93
2024-05-09T09:50:35.882Z,18.74
2024-05-09T09:51:35.901Z,19.15
2024-05-09T09:52:35.855Z,19.19
2024-05-09T09:53:35.991Z,19.31
2024-05-09T09:54:35.884Z,19.12
2024-05-09T09:55:36.794Z,19.41
2024-05-09T09:56:35.823Z,19.63
2024-05-09T09:57:35.930Z,19.49
2024-05-09T09:58:35.907Z,19.60
2024-05-09T09:59:35.850Z,19.07
2024-05-09T10:00:35.982Z,19.09
2024-05-09T10:01:36.045Z,19.20
2024-05-09T10:02:36.046Z,19.17
2024-05-09T10:03:36.034Z,19.37
2024-05-09T10:04:35.830Z,19.64
2024-05-09T10:05:35.911Z,19.87
2024-05-09T10:06:35.759Z,19.79
2024-05-09T10:07:35.754Z,19.56
2024-05-09T10:08:35.711Z,19.38
2024-05-09T10:09:35.734Z,18.96
2024-05-09T10:10:36.044Z,19.09
2024-05-09T10:11:42.077Z,18.96
2024-05-09T10:12:36.810Z,19.00
2024-05-09T10:13:35.802Z,19.08
2024-05-09T10:14:35.700Z,19.15
2024-05-09T10:15:35.775Z,19.62
2024-05-09T10:16:35.688Z,19.79
2024-05-09T10:17:35.782Z,20.12
2024-05-09T10:18:35.782Z,20.36
2024-05-09T10:19:35.699Z,20.60
2024-05-09T10:20:35.697Z,20.34
2024-05-09T10:21:35.793Z,20.09
2024-05-09T10:22:35.642Z,19.96
2024-05-09T10:23:35.771Z,19.86
2024-05-09T10:24:35.611Z,19.79
2024-05-09T10:25:35.609Z,19.64
2024-05-09T10:26:35.627Z,19.53
2024-05-09T10:27:35.668Z,20.11
2024-05-09T10:28:35.999Z,20.12
2024-05-09T10:29:35.618Z,20.25
2024-05-09T10:30:36.584Z,19.92
2024-05-09T10:31:35.629Z,19.05
2024-05-09T10:32:35.594Z,19.01
2024-05-09T10:33:35.682Z,19.38
2024-05-09T10:34:35.580Z,19.64
2024-05-09T10:35:35.653Z,19.41
2024-05-09T10:36:35.511Z,19.35
2024-05-09T10:37:35.621Z,19.54
2024-05-09T10:38:35.495Z,19.49
2024-05-09T10:39:35.562Z,19.86
2024-05-09T10:40:35.550Z,20.17
2024-05-09T10:41:35.470Z,20.63
2024-05-09T10:42:45.354Z,20.95
2024-05-09T10:43:35.438Z,21.18
2024-05-09T10:44:35.427Z,20.95
2024-05-09T10:45:35.493Z,20.77
2024-05-09T10:46:35.408Z,20.58
2024-05-09T10:47:35.468Z,20.12
2024-05-09T10:48:35.476Z,20.29
2024-05-09T10:49:35.461Z,20.29
2024-05-09T10:50:35.440Z,20.49
2024-05-09T10:51:35.436Z,20.74
2024-05-09T10:52:35.372Z,20.61
2024-05-09T10:53:35.375Z,20.79
2024-05-09T10:54:35.428Z,20.30
2024-05-09T10:55:35.401Z,20.60
2024-05-09T10:56:35.329Z,20.86
2024-05-09T10:57:35.340Z,20.82
2024-05-09T10:58:35.307Z,20.77
2024-05-09T10:59:35.327Z,20.77
2024-05-09T11:00:36.439Z,20.52
2024-05-09T11:01:35.430Z,20.70
2024-05-09T11:02:35.415Z,20.88
2024-05-09T11:03:35.854Z,20.73
2024-05-09T11:04:35.312Z,20.33
2024-05-09T11:05:35.425Z,20.44
2024-05-09T11:06:35.355Z,20.85
2024-05-09T11:07:35.234Z,20.80
2024-05-09T11:08:35.252Z,21.13
2024-05-09T11:09:35.250Z,21.50
2024-05-09T11:10:35.306Z,21.18
2024-05-09T11:11:36.970Z,21.18
2024-05-09T11:12:35.271Z,21.37
2024-05-09T11:13:35.240Z,21.50
2024-05-09T11:14:35.200Z,21.81
2024-05-09T11:15:35.209Z,21.48
2024-05-09T11:16:35.155Z,20.98
2024-05-09T11:17:35.345Z,21.03
2024-05-09T11:18:38.208Z,20.83
2024-05-09T11:19:35.333Z,20.49
2024-05-09T11:20:35.654Z,20.48
2024-05-09T11:21:35.153Z,20.41
2024-05-09T11:22:35.176Z,20.53
2024-05-09T11:23:35.138Z,20.42
2024-05-09T11:24:35.116Z,20.50
2024-05-09T11:25:35.108Z,20.85
2024-05-09T11:26:35.085Z,21.32
2024-05-09T11:27:35.134Z,21.59
2024-05-09T11:28:35.204Z,21.91
2024-05-09T11:29:35.129Z,21.28
2024-05-09T11:30:35.097Z,21.75
2024-05-09T11:31:35.112Z,20.93
2024-05-09T11:32:35.222Z,20.80
2024-05-09T11:33:35.084Z,20.42
2024-05-09T11:34:35.153Z,20.89
2024-05-09T11:35:35.022Z,20.92
2024-05-09T11:36:35.076Z,21.05
2024-05-09T11:37:37.167Z,21.37
2024-05-09T11:38:35.025Z,21.10
2024-05-09T11:39:35.070Z,20.93
2024-05-09T11:40:35.113Z,20.82
2024-05-09T11:41:34.982Z,20.55
2024-05-09T11:42:35.010Z,20.64
2024-05-09T11:43:35.073Z,20.97
2024-05-09T11:44:34.979Z,20.73
2024-05-09T11:45:35.061Z,20.23
2024-05-09T11:46:34.966Z,20.09
2024-05-09T11:47:35.050Z,20.19
2024-05-09T11:48:35.113Z,20.29
2024-05-09T11:49:35.118Z,20.37
2024-05-09T11:50:36.108Z,20.65
2024-05-09T11:51:34.960Z,20.18
2024-05-09T11:52:34.902Z,20.37
2024-05-09T11:53:34.874Z,20.48
2024-05-09T11:54:34.918Z,20.27
2024-05-09T11:55:34.896Z,20.07
2024-05-09T11:56:34.890Z,20.27
2024-05-09T11:57:34.875Z,20.12
2024-05-09T11:58:35.037Z,20.42
2024-05-09T11:59:34.887Z,20.63
2024-05-09T12:00:37.426Z,20.68
2024-05-09T12:01:34.974Z,21.01
2024-05-09T12:02:34.908Z,21.05
2024-05-09T12:03:35.110Z,20.55
2024-05-09T12:04:34.925Z,20.63
2024-05-09T12:05:35.058Z,21.20
2024-05-09T12:06:34.853Z,21.40
2024-05-09T12:07:34.953Z,20.85
2024-05-09T12:08:34.772Z,21.18
2024-05-09T12:09:34.818Z,21.53
2024-05-09T12:10:36.317Z,22.21
2024-05-09T12:11:34.768Z,22.36
2024-05-09T12:12:37.117Z,21.93
2024-05-09T12:13:34.998Z,21.48
2024-05-09T12:14:34.732Z,20.75
2024-05-09T12:15:34.783Z,20.41
2024-05-09T12:16:34.767Z,20.74
2024-05-09T12:17:34.780Z,21.10
2024-05-09T12:18:34.892Z,21.78
2024-05-09T12:19:34.770Z,21.84
2024-05-09T12:20:37.899Z,21.74
2024-05-09T12:21:35.721Z,21.40
2024-05-09T12:22:34.666Z,21.97
2024-05-09T12:23:34.669Z,21.77
2024-05-09T12:24:34.727Z,21.91
2024-05-09T12:25:34.649Z,22.19
2024-05-09T12:26:34.644Z,22.43
2024-05-09T12:27:34.706Z,22.19
2024-05-09T12:28:35.461Z,22.51
2024-05-09T12:29:37.536Z,21.73
2024-05-09T12:30:38.470Z,21.10
2024-05-09T12:31:35.620Z,20.80
2024-05-09T12:32:34.711Z,20.73
2024-05-09T12:33:34.719Z,20.33
2024-05-09T12:34:34.676Z,20.68
2024-05-09T12:35:34.884Z,20.36
2024-05-09T12:36:34.682Z,20.48
2024-05-09T12:37:34.579Z,20.46
2024-05-09T12:38:34.538Z,20.67
2024-05-09T12:39:34.536Z,21.10
2024-05-09T12:40:37.630Z,21.84
2024-05-09T12:41:34.616Z,21.69
2024-05-09T12:42:34.526Z,22.06
2024-05-09T12:43:34.506Z,22.67
2024-05-09T12:44:34.480Z,22.77
2024-05-09T12:45:34.561Z,22.64
2024-05-09T12:46:34.486Z,23.28
2024-05-09T12:47:34.544Z,22.85
2024-05-09T12:48:34.685Z,23.18
2024-05-09T12:49:34.569Z,23.14
2024-05-09T12:50:34.942Z,22.91
2024-05-09T12:51:34.468Z,21.59
2024-05-09T12:52:34.561Z,20.49
2024-05-09T12:53:34.575Z,20.23
2024-05-09T12:54:34.455Z,20.33
2024-05-09T12:55:41.456Z,20.71
2024-05-09T12:56:35.390Z,20.71
2024-05-09T12:57:34.431Z,20.60
2024-05-09T12:58:34.407Z,20.08
2024-05-09T12:59:34.513Z,20.17
2024-05-09T13:00:34.748Z,20.71
2024-05-09T13:01:34.550Z,20.97
2024-05-09T13:02:34.538Z,20.77
2024-05-09T13:03:34.564Z,21.20
2024-05-09T13:04:34.661Z,21.96
2024-05-09T13:05:34.478Z,22.28
2024-05-09T13:06:34.412Z,22.38
2024-05-09T13:07:34.298Z,22.11